Lincolnville, South Carolina
Current Conditions -  °F | °C
As of 5:55 PM on Monday 22 Dec 2014 (Local Time) from KDYB Reporting Station
Overcast Overcast  
Wind Chill: 41°   Ceiling: 500
Heat Index: 45°   Visibility: 10mi
Dew Point: 45°   Wind: 6mph
Humidity: 100%   Direction: 20°NNE
Pressure: 30.01"   Gusts: NA
Location:  32.9158°N, 80.2679°W
Report Text: KDYB 222255Z AUTO 02005KT 10SM BKN005 OVC009 07/07 A3001 RMK AO1
Loading
Personal Weather Stations






























Interactive Weather Map New forecast layout! Learn more

10-Day Weather Forecast

Advertisements
Track Severe Weather on mobile